createdAt,value
2019-04-22T00:00:30.782Z,42.13
2019-04-22T00:01:21.557Z,41.72
2019-04-22T00:02:17.461Z,41.30
2019-04-22T00:03:19.994Z,41.60
2019-04-22T00:04:36.984Z,40.70
2019-04-22T00:05:39.553Z,40.99
2019-04-22T00:06:39.479Z,40.48
2019-04-22T00:07:43.279Z,41.30
2019-04-22T00:08:44.620Z,39.87
2019-04-22T00:09:49.928Z,40.28
2019-04-22T00:10:46.763Z,40.99
2019-04-22T00:11:46.569Z,40.08
2019-04-22T00:12:42.379Z,40.28
2019-04-22T00:13:48.862Z,40.59
2019-04-22T00:14:36.869Z,40.28
2019-04-22T00:15:37.097Z,40.59
2019-04-22T00:16:47.260Z,39.78
2019-04-22T00:17:50.617Z,39.98
2019-04-22T00:18:56.363Z,39.87
2019-04-22T00:19:43.709Z,39.37
2019-04-22T00:20:42.345Z,39.39
2019-04-22T00:21:51.788Z,39.67
2019-04-22T00:22:40.242Z,39.39
2019-04-22T00:23:39.185Z,39.39
2019-04-22T00:24:39.026Z,39.17
2019-04-22T00:25:46.305Z,38.76
2019-04-22T00:26:44.018Z,38.86
2019-04-22T00:27:51.157Z,38.05
2019-04-22T00:28:43.717Z,38.66
2019-04-22T00:30:40.817Z,38.66
2019-04-22T00:31:41.286Z,38.66
2019-04-22T00:32:41.865Z,38.25
2019-04-22T00:33:38.884Z,38.15
2019-04-22T00:34:43.996Z,38.05
2019-04-22T00:35:41.633Z,37.44
2019-04-22T00:36:46.585Z,37.74
2019-04-22T00:37:43.850Z,37.74
2019-04-22T00:38:44.366Z,37.44
2019-04-22T00:39:44.456Z,37.54
2019-04-22T00:40:39.600Z,36.83
2019-04-22T00:41:42.547Z,37.13
2019-04-22T00:42:45.016Z,37.04
2019-04-22T00:43:39.232Z,36.93
2019-04-22T00:44:51.831Z,37.04
2019-04-22T00:45:49.229Z,36.83
2019-04-22T00:46:50.957Z,36.30
2019-04-22T00:47:37.974Z,36.71
2019-04-22T00:48:44.479Z,36.61
2019-04-22T00:50:48.218Z,36.82
2019-04-22T00:51:44.309Z,36.91
2019-04-22T00:52:39.859Z,37.83
2019-04-22T00:53:40.182Z,38.05
2019-04-22T00:54:47.698Z,38.05
2019-04-22T00:55:40.494Z,38.05
2019-04-22T00:56:48.197Z,38.45
2019-04-22T00:57:40.471Z,38.07
2019-04-22T00:58:41.255Z,37.74
2019-04-22T00:59:30.700Z,37.74
2019-04-22T01:00:44.487Z,37.74
2019-04-22T01:01:36.983Z,37.76
2019-04-22T01:02:54.601Z,37.85
2019-04-22T01:05:42.228Z,37.76
2019-04-22T01:06:41.382Z,39.08
2019-04-22T01:07:37.225Z,39.28
2019-04-22T01:08:51.409Z,39.81
2019-04-22T01:09:46.376Z,38.27
2019-04-22T01:10:49.839Z,38.09
2019-04-22T01:11:37.831Z,37.05
2019-04-22T01:12:40.033Z,38.07
2019-04-22T01:13:46.989Z,37.35
2019-04-22T01:14:41.415Z,36.73
2019-04-22T01:15:40.448Z,36.53
2019-04-22T01:16:42.705Z,37.04
2019-04-22T01:17:40.450Z,36.73
2019-04-22T01:18:41.345Z,37.04
2019-04-22T01:19:45.061Z,37.13
2019-04-22T01:21:00.850Z,37.24
2019-04-22T01:21:40.877Z,37.24
2019-04-22T01:22:42.441Z,36.83
2019-04-22T01:23:34.665Z,37.24
2019-04-22T01:24:42.177Z,37.04
2019-04-22T01:25:39.143Z,36.83
2019-04-22T01:26:34.548Z,36.53
2019-04-22T01:27:33.026Z,36.53
2019-04-22T01:28:34.150Z,35.61
2019-04-22T01:29:33.717Z,36.32
2019-04-22T01:30:27.881Z,36.63
2019-04-22T01:31:20.346Z,37.42
2019-04-22T01:32:25.594Z,36.32
2019-04-22T01:33:23.789Z,37.24
2019-04-22T01:34:32.202Z,37.04
2019-04-22T01:35:28.634Z,37.13
2019-04-22T01:36:35.247Z,36.93
2019-04-22T01:37:34.602Z,37.05
2019-04-22T01:38:36.638Z,37.13
2019-04-22T01:39:43.940Z,36.85
2019-04-22T01:40:45.134Z,37.96
2019-04-22T01:41:48.397Z,37.76
2019-04-22T01:42:50.399Z,37.76
2019-04-22T01:43:52.195Z,37.96
2019-04-22T01:44:41.723Z,38.57
2019-04-22T01:45:41.433Z,39.00
2019-04-22T01:46:47.300Z,38.70
2019-04-22T01:47:43.486Z,38.78
2019-04-22T01:48:43.978Z,38.39
2019-04-22T01:49:39.845Z,38.47
2019-04-22T01:50:36.813Z,38.17
2019-04-22T01:51:54.346Z,39.10
2019-04-22T01:52:47.347Z,39.10
2019-04-22T01:53:43.351Z,39.00
2019-04-22T01:54:52.144Z,39.10
2019-04-22T01:55:45.484Z,38.09
2019-04-22T01:56:41.056Z,38.18
2019-04-22T01:57:44.456Z,38.39
2019-04-22T01:58:36.227Z,38.09
2019-04-22T01:59:37.079Z,38.79
2019-04-22T02:00:48.806Z,39.00
2019-04-22T02:01:45.096Z,39.00
2019-04-22T02:02:42.873Z,38.70
2019-04-22T02:03:46.686Z,39.30
2019-04-22T02:04:44.622Z,39.81
2019-04-22T02:05:53.623Z,39.40
2019-04-22T02:06:43.948Z,39.20
2019-04-22T02:07:42.359Z,39.10
2019-04-22T02:08:46.647Z,40.01
2019-04-22T02:09:42.805Z,39.62
2019-04-22T02:11:47.247Z,39.02
2019-04-22T02:12:42.606Z,40.03
2019-04-22T02:13:43.094Z,40.34
2019-04-22T02:15:47.779Z,39.93
2019-04-22T02:16:44.570Z,40.46
2019-04-22T02:17:47.783Z,40.05
2019-04-22T02:18:47.554Z,41.07
2019-04-22T02:19:51.729Z,41.17
2019-04-22T02:20:42.991Z,41.07
2019-04-22T02:21:43.997Z,41.68
2019-04-22T02:23:10.198Z,41.09
2019-04-22T02:23:47.070Z,41.49
2019-04-22T02:24:47.414Z,41.09
2019-04-22T02:25:46.871Z,40.88
2019-04-22T02:26:41.727Z,41.09
2019-04-22T02:27:46.047Z,41.09
2019-04-22T02:28:42.743Z,41.07
2019-04-22T02:29:44.342Z,41.90
2019-04-22T02:31:09.321Z,41.60
2019-04-22T02:36:43.143Z,41.49
2019-04-22T02:38:10.334Z,41.49
2019-04-22T02:39:52.824Z,40.99
2019-04-22T02:41:08.738Z,40.78
2019-04-22T02:41:43.793Z,41.29
2019-04-22T02:42:43.200Z,40.78
2019-04-22T02:44:47.149Z,39.97
2019-04-22T02:46:03.896Z,39.97
2019-04-22T02:47:47.552Z,41.19
2019-04-22T02:50:02.416Z,40.58
2019-04-22T02:50:43.437Z,39.87
2019-04-22T02:51:36.575Z,40.17
2019-04-22T02:53:09.553Z,40.07
2019-04-22T02:54:15.226Z,39.97
2019-04-22T02:54:49.057Z,39.34
2019-04-22T02:55:55.360Z,40.17
2019-04-22T02:57:55.133Z,39.97
2019-04-22T02:59:46.951Z,40.37
2019-04-22T03:01:01.079Z,40.07
2019-04-22T03:01:53.268Z,40.27
2019-04-22T03:04:43.788Z,40.80
2019-04-22T03:05:58.252Z,41.11
2019-04-22T03:06:39.253Z,41.21
2019-04-22T03:07:53.725Z,41.11
2019-04-22T03:08:51.297Z,41.31
2019-04-22T03:10:04.876Z,41.31
2019-04-22T03:11:07.631Z,41.23
2019-04-22T03:12:41.631Z,41.92
2019-04-22T03:14:53.459Z,42.13
2019-04-22T03:15:55.406Z,42.04
2019-04-22T03:16:44.788Z,41.72
2019-04-22T03:17:43.935Z,42.13
2019-04-22T03:19:05.924Z,42.43
2019-04-22T03:19:54.818Z,43.37
2019-04-22T03:20:51.875Z,41.94
2019-04-22T03:21:48.664Z,42.55
2019-04-22T03:22:46.966Z,42.35
2019-04-22T03:23:58.661Z,42.63
2019-04-22T03:26:01.269Z,43.14
2019-04-22T03:27:52.220Z,42.33
2019-04-22T03:28:57.092Z,42.33
2019-04-22T03:29:58.729Z,42.83
2019-04-22T03:34:22.751Z,43.06
2019-04-22T03:35:20.187Z,43.06
2019-04-22T03:39:59.380Z,43.37
2019-04-22T03:42:00.575Z,43.26
2019-04-22T03:42:56.073Z,43.77
2019-04-22T03:44:04.448Z,43.06
2019-04-22T03:45:51.698Z,43.87
2019-04-22T03:46:50.970Z,42.76
2019-04-22T03:48:47.432Z,43.26
2019-04-22T03:50:04.098Z,43.67
2019-04-22T03:50:45.802Z,43.67
2019-04-22T03:52:01.904Z,43.16
2019-04-22T03:53:05.924Z,43.77
2019-04-22T03:53:55.564Z,43.06
2019-04-22T03:55:04.360Z,43.16
2019-04-22T03:55:49.085Z,43.47
2019-04-22T03:58:48.306Z,43.77
2019-04-22T03:59:48.206Z,43.47
2019-04-22T04:02:09.947Z,42.86
2019-04-22T04:02:47.419Z,43.98
2019-04-22T04:03:51.767Z,43.37
2019-04-22T04:04:43.406Z,43.37
2019-04-22T04:07:01.455Z,43.57
2019-04-22T04:07:57.776Z,43.26
2019-04-22T04:08:46.328Z,43.47
2019-04-22T04:09:49.853Z,42.76
2019-04-22T04:13:54.036Z,43.77
2019-04-22T04:15:35.979Z,43.06
2019-04-22T04:16:59.607Z,43.06
2019-04-22T04:17:51.846Z,43.04
2019-04-22T04:20:01.188Z,43.55
2019-04-22T04:21:06.278Z,42.94
2019-04-22T04:21:40.682Z,43.24
2019-04-22T04:23:05.470Z,43.24
2019-04-22T04:24:01.146Z,42.83
2019-04-22T04:25:50.301Z,43.24
2019-04-22T04:26:55.278Z,43.04
2019-04-22T04:30:02.573Z,43.14
2019-04-22T04:30:42.308Z,43.24
2019-04-22T04:33:50.612Z,43.44
2019-04-22T04:35:07.294Z,43.65
2019-04-22T04:37:03.391Z,43.35
2019-04-22T04:37:55.956Z,43.75
2019-04-22T04:38:54.545Z,43.44
2019-04-22T04:39:53.443Z,42.83
2019-04-22T04:40:51.186Z,43.24
2019-04-22T04:42:46.250Z,42.94
2019-04-22T04:43:52.909Z,43.63
2019-04-22T04:46:50.136Z,42.21
2019-04-22T04:48:53.707Z,42.92
2019-04-22T04:50:55.710Z,43.02
2019-04-22T04:51:47.262Z,43.02
2019-04-22T04:53:02.606Z,42.82
2019-04-22T04:53:44.559Z,42.51
2019-04-22T04:54:48.417Z,43.02
2019-04-22T04:56:03.151Z,43.23
2019-04-22T04:56:47.012Z,42.61
2019-04-22T04:57:54.405Z,41.60
2019-04-22T04:58:56.522Z,41.78
2019-04-22T05:00:11.290Z,41.99
2019-04-22T05:02:52.178Z,42.29
2019-04-22T05:03:57.240Z,41.88
2019-04-22T05:05:00.286Z,42.29
2019-04-22T05:05:54.718Z,41.68
2019-04-22T05:06:51.533Z,42.17
2019-04-22T05:09:05.327Z,41.86
2019-04-22T05:09:44.878Z,41.56
2019-04-22T05:11:54.342Z,42.77
2019-04-22T05:15:04.051Z,41.96
2019-04-22T05:16:07.235Z,42.07
2019-04-22T05:17:44.727Z,42.47
2019-04-22T05:18:44.333Z,41.86
2019-04-22T05:19:36.069Z,41.56
2019-04-22T05:20:53.369Z,42.47
2019-04-22T05:21:39.689Z,41.96
2019-04-22T05:22:39.953Z,42.45
2019-04-22T05:23:45.354Z,42.25
2019-04-22T05:25:00.200Z,42.77
2019-04-22T05:25:33.835Z,42.55
2019-04-22T05:26:48.761Z,42.66
2019-04-22T05:27:39.466Z,42.55
2019-04-22T05:28:40.147Z,42.47
2019-04-22T05:30:39.460Z,42.55
2019-04-22T05:31:45.967Z,43.16
2019-04-22T05:32:58.588Z,42.25
2019-04-22T05:33:46.033Z,42.25
2019-04-22T05:34:39.850Z,41.94
2019-04-22T05:35:41.337Z,41.64
2019-04-22T05:36:42.564Z,42.25
2019-04-22T05:37:40.319Z,41.52
2019-04-22T05:38:53.738Z,41.93
2019-04-22T05:39:36.839Z,41.62
2019-04-22T05:40:48.082Z,42.23
2019-04-22T05:41:45.982Z,42.13
2019-04-22T05:42:34.476Z,42.74
2019-04-22T05:43:45.679Z,41.82
2019-04-22T05:44:41.127Z,42.13
2019-04-22T05:45:40.294Z,42.43
2019-04-22T05:46:34.568Z,43.55
2019-04-22T05:47:42.597Z,41.82
2019-04-22T05:48:44.958Z,41.21
2019-04-22T05:49:35.038Z,41.93
2019-04-22T05:50:37.345Z,42.02
2019-04-22T05:52:01.175Z,41.72
2019-04-22T05:52:43.234Z,41.30
2019-04-22T05:53:43.374Z,42.00
2019-04-22T05:54:38.602Z,41.30
2019-04-22T05:55:45.235Z,41.80
2019-04-22T05:56:37.137Z,41.60
2019-04-22T05:57:38.416Z,40.89
2019-04-22T05:58:46.483Z,40.89
2019-04-22T05:59:57.304Z,40.67
2019-04-22T06:01:04.258Z,41.38
2019-04-22T06:01:52.107Z,41.58
2019-04-22T06:02:48.885Z,41.99
2019-04-22T06:03:39.437Z,41.28
2019-04-22T06:04:44.971Z,40.97
2019-04-22T06:06:35.585Z,42.51
2019-04-22T06:08:42.883Z,42.49
2019-04-22T06:09:33.948Z,41.88
2019-04-22T06:11:48.253Z,41.99
2019-04-22T06:12:32.777Z,41.88
2019-04-22T06:13:32.582Z,42.09
2019-04-22T06:14:34.282Z,42.29
2019-04-22T06:15:34.447Z,41.78
2019-04-22T06:16:38.007Z,41.78
2019-04-22T06:17:38.023Z,41.78
2019-04-22T06:18:40.940Z,42.39
2019-04-22T06:19:38.526Z,42.78
2019-04-22T06:20:43.417Z,43.10
2019-04-22T06:21:50.182Z,41.77
2019-04-22T06:22:43.192Z,41.88
2019-04-22T06:23:40.394Z,43.20
2019-04-22T06:24:32.432Z,42.78
2019-04-22T06:26:03.960Z,43.10
2019-04-22T06:26:53.994Z,43.08
2019-04-22T06:27:44.297Z,42.69
2019-04-22T06:28:40.712Z,43.08
2019-04-22T06:29:36.835Z,42.68
2019-04-22T06:30:41.441Z,42.57
2019-04-22T06:31:49.704Z,43.59
2019-04-22T06:32:53.718Z,42.78
2019-04-22T06:33:40.534Z,42.78
2019-04-22T06:35:08.019Z,41.56
2019-04-22T06:37:43.346Z,43.06
2019-04-22T06:39:41.226Z,42.35
2019-04-22T06:40:40.359Z,42.35
2019-04-22T06:41:40.300Z,43.67
2019-04-22T06:42:48.985Z,42.55
2019-04-22T06:44:36.884Z,42.86
2019-04-22T06:45:34.786Z,42.46
2019-04-22T06:46:43.342Z,42.55
2019-04-22T06:47:56.027Z,42.54
2019-04-22T06:48:35.696Z,43.24
2019-04-22T06:49:41.645Z,43.04
2019-04-22T06:51:37.468Z,41.85
2019-04-22T06:52:38.315Z,43.65
2019-04-22T06:54:45.561Z,42.94
2019-04-22T06:55:44.271Z,42.94
2019-04-22T06:56:35.244Z,42.74
2019-04-22T06:57:41.707Z,42.13
2019-04-22T06:58:44.372Z,43.35
2019-04-22T06:59:36.278Z,42.92
2019-04-22T07:00:40.384Z,43.83
2019-04-22T07:01:55.027Z,43.04
2019-04-22T07:02:45.265Z,42.43
2019-04-22T07:03:52.347Z,43.04
2019-04-22T07:04:41.934Z,41.93
2019-04-22T07:05:49.502Z,42.21
2019-04-22T07:06:41.567Z,42.61
2019-04-22T07:07:38.661Z,42.72
2019-04-22T07:09:41.391Z,43.02
2019-04-22T07:10:44.821Z,42.60
2019-04-22T07:11:37.918Z,43.51
2019-04-22T07:12:35.188Z,43.71
2019-04-22T07:13:57.061Z,43.12
2019-04-22T07:14:35.586Z,43.00
2019-04-22T07:15:46.343Z,43.71
2019-04-22T07:16:39.358Z,42.80
2019-04-22T07:17:46.232Z,42.40
2019-04-22T07:18:36.006Z,43.20
2019-04-22T07:19:40.939Z,43.61
2019-04-22T07:20:42.059Z,43.61
2019-04-22T07:21:37.319Z,43.79
2019-04-22T07:22:33.896Z,43.38
2019-04-22T07:23:38.601Z,43.29
2019-04-22T07:24:46.324Z,43.49
2019-04-22T07:25:32.913Z,42.27
2019-04-22T07:26:37.575Z,42.35
2019-04-22T07:27:34.260Z,43.67
2019-04-22T07:28:29.143Z,43.06
2019-04-22T07:29:39.228Z,43.16
2019-04-22T07:30:41.055Z,41.75
2019-04-22T07:31:36.895Z,41.64
2019-04-22T07:33:01.010Z,42.33
2019-04-22T07:33:37.720Z,42.94
2019-04-22T07:34:41.177Z,41.83
2019-04-22T07:35:45.968Z,40.82
2019-04-22T07:38:29.968Z,41.73
2019-04-22T07:39:37.975Z,40.82
2019-04-22T07:40:40.603Z,42.54
2019-04-22T07:41:37.896Z,41.02
2019-04-22T07:42:43.203Z,41.91
2019-04-22T07:44:00.700Z,41.61
2019-04-22T07:44:43.558Z,41.81
2019-04-22T07:45:38.806Z,41.71
2019-04-22T07:46:43.124Z,41.49
2019-04-22T07:47:40.958Z,41.89
2019-04-22T07:48:45.219Z,41.08
2019-04-22T07:49:39.097Z,39.67
2019-04-22T07:50:50.762Z,40.58
2019-04-22T07:51:36.787Z,39.57
2019-04-22T07:52:35.191Z,40.88
2019-04-22T07:53:34.284Z,41.06
2019-04-22T07:54:25.804Z,38.84
2019-04-22T07:55:38.146Z,40.76
2019-04-22T07:56:37.927Z,40.56
2019-04-22T07:58:38.848Z,39.65
2019-04-22T07:59:35.272Z,39.03
2019-04-22T08:01:39.764Z,39.43
2019-04-22T08:02:42.254Z,39.43
2019-04-22T08:03:47.868Z,39.73
2019-04-22T08:05:48.013Z,41.45
2019-04-22T08:06:43.800Z,39.72
2019-04-22T08:07:36.297Z,40.92
2019-04-22T08:08:38.891Z,39.61
2019-04-22T08:09:47.680Z,39.72
2019-04-22T08:10:43.164Z,39.21
2019-04-22T08:12:39.037Z,39.92
2019-04-22T08:13:37.809Z,39.51
2019-04-22T08:14:42.247Z,42.03
2019-04-22T08:15:40.045Z,41.42
2019-04-22T08:16:33.865Z,39.51
2019-04-22T08:18:39.562Z,40.91
2019-04-22T08:19:44.663Z,40.30
2019-04-22T08:20:56.778Z,39.79
2019-04-22T08:21:38.426Z,39.70
2019-04-22T08:22:43.121Z,39.90
2019-04-22T08:25:41.520Z,39.39
2019-04-22T08:26:42.130Z,40.70
2019-04-22T08:27:48.303Z,40.48
2019-04-22T08:28:47.861Z,38.87
2019-04-22T08:29:58.619Z,39.98
2019-04-22T08:30:40.779Z,38.57
2019-04-22T08:31:48.648Z,38.07
2019-04-22T08:32:44.093Z,39.58
2019-04-22T08:33:35.511Z,39.78
2019-04-22T08:34:38.892Z,39.68
2019-04-22T08:35:52.266Z,38.87
2019-04-22T08:36:41.017Z,39.76
2019-04-22T08:37:47.380Z,39.96
2019-04-22T08:38:39.369Z,39.56
2019-04-22T08:39:38.657Z,40.97
2019-04-22T08:40:42.418Z,40.66
2019-04-22T08:41:43.820Z,40.56
2019-04-22T08:42:53.123Z,40.64
2019-04-22T08:43:48.286Z,40.04
2019-04-22T08:45:38.500Z,38.73
2019-04-22T08:47:36.063Z,39.14
2019-04-22T08:48:36.722Z,39.74
2019-04-22T08:49:44.317Z,41.05
2019-04-22T08:50:41.331Z,41.03
2019-04-22T08:51:36.290Z,41.13
2019-04-22T08:52:34.695Z,40.53
2019-04-22T08:53:45.189Z,39.32
2019-04-22T08:54:36.034Z,39.32
2019-04-22T08:55:44.444Z,41.73
2019-04-22T08:57:57.114Z,39.50
2019-04-22T08:58:40.411Z,38.60
2019-04-22T08:59:36.962Z,39.40
2019-04-22T09:00:39.642Z,39.30
2019-04-22T09:01:51.845Z,38.79
2019-04-22T09:02:38.676Z,38.09
2019-04-22T09:03:37.583Z,36.69
2019-04-22T09:04:31.274Z,39.40
2019-04-22T09:06:49.356Z,39.88
2019-04-22T09:07:38.088Z,40.19
2019-04-22T09:08:42.775Z,40.59
2019-04-22T09:09:39.159Z,40.59
2019-04-22T09:10:37.491Z,41.19
2019-04-22T09:11:41.479Z,41.19
2019-04-22T09:13:38.443Z,41.69
2019-04-22T09:14:40.623Z,39.58
2019-04-22T09:15:37.340Z,41.29
2019-04-22T09:16:39.638Z,40.28
2019-04-22T09:17:34.988Z,40.48
2019-04-22T09:18:34.757Z,41.69
2019-04-22T09:19:38.496Z,41.19
2019-04-22T09:20:44.439Z,41.79
2019-04-22T09:21:43.288Z,40.57
2019-04-22T09:22:35.004Z,39.47
2019-04-22T09:23:38.751Z,39.06
2019-04-22T09:24:43.530Z,39.16
2019-04-22T09:25:43.999Z,39.47
2019-04-22T09:26:53.986Z,41.17
2019-04-22T09:27:41.263Z,39.76
2019-04-22T09:28:38.073Z,40.57
2019-04-22T09:29:40.002Z,39.56
2019-04-22T09:30:40.515Z,38.36
2019-04-22T09:31:39.036Z,39.06
2019-04-22T09:32:38.453Z,38.86
2019-04-22T09:35:37.511Z,38.86
2019-04-22T09:36:45.872Z,39.04
2019-04-22T09:37:40.554Z,40.55
2019-04-22T09:38:39.550Z,40.35
2019-04-22T09:39:41.293Z,38.44
2019-04-22T09:40:34.497Z,37.34
2019-04-22T09:41:42.993Z,36.43
2019-04-22T09:42:39.122Z,37.74
2019-04-22T09:43:41.081Z,39.34
2019-04-22T09:44:36.216Z,39.73
2019-04-22T09:45:34.444Z,41.03
2019-04-22T09:47:45.416Z,37.82
2019-04-22T09:48:40.609Z,39.42
2019-04-22T09:49:48.106Z,37.92
2019-04-22T09:50:40.453Z,37.72
2019-04-22T09:51:41.455Z,37.42
2019-04-22T09:52:37.672Z,37.60
2019-04-22T09:53:39.205Z,39.12
2019-04-22T09:54:49.656Z,37.80
2019-04-22T09:55:37.065Z,38.53
2019-04-22T09:56:42.142Z,37.92
2019-04-22T09:57:35.778Z,36.60
2019-04-22T09:58:41.618Z,37.50
2019-04-22T09:59:36.778Z,37.42
2019-04-22T10:00:38.065Z,38.00
2019-04-22T10:01:34.105Z,37.40
2019-04-22T10:02:41.291Z,37.80
2019-04-22T10:03:39.861Z,37.50
2019-04-22T10:04:39.798Z,37.40
2019-04-22T10:05:48.304Z,38.89
2019-04-22T10:06:33.783Z,35.88
2019-04-22T10:07:35.290Z,36.98
2019-04-22T10:08:50.282Z,36.68
2019-04-22T10:09:52.852Z,38.49
2019-04-22T10:10:35.074Z,35.88
2019-04-22T10:11:38.865Z,36.38
2019-04-22T10:12:36.601Z,37.59
2019-04-22T10:13:40.606Z,38.59
2019-04-22T10:14:43.791Z,37.87
2019-04-22T10:15:32.315Z,39.07
2019-04-22T10:16:41.910Z,38.87
2019-04-22T10:17:39.558Z,35.26
2019-04-22T10:18:39.217Z,36.66
2019-04-22T10:19:37.255Z,37.57
2019-04-22T10:20:38.744Z,38.57
2019-04-22T10:21:49.996Z,40.55
2019-04-22T10:22:39.500Z,39.45
2019-04-22T10:23:42.354Z,37.55
2019-04-22T10:24:36.925Z,36.35
2019-04-22T10:25:35.151Z,37.45
2019-04-22T10:26:39.107Z,38.03
2019-04-22T10:27:32.747Z,37.43
2019-04-22T10:28:41.129Z,38.23
2019-04-22T10:29:41.671Z,39.43
2019-04-22T10:30:44.498Z,37.73
2019-04-22T10:31:39.818Z,36.63
2019-04-22T10:32:39.601Z,37.73
2019-04-22T10:33:33.226Z,37.13
2019-04-22T10:34:23.538Z,39.13
2019-04-22T10:35:15.550Z,38.91
2019-04-22T10:36:09.876Z,38.51
2019-04-22T10:37:11.843Z,37.51
2019-04-22T10:38:10.332Z,38.71
2019-04-22T10:39:08.841Z,37.81
2019-04-22T10:40:11.303Z,39.22
2019-04-22T10:41:10.238Z,37.71
2019-04-22T10:42:09.144Z,39.01
2019-04-22T10:43:09.569Z,39.72
2019-04-22T10:44:08.971Z,37.11
2019-04-22T10:45:10.026Z,38.89
2019-04-22T10:46:10.352Z,37.99
2019-04-22T10:47:09.768Z,36.91
2019-04-22T10:48:10.254Z,37.70
2019-04-22T10:49:08.705Z,36.90
2019-04-22T10:50:10.311Z,37.29
2019-04-22T10:51:08.693Z,39.69
2019-04-22T10:52:08.809Z,40.50
2019-04-22T10:53:08.676Z,37.77
2019-04-22T10:54:09.615Z,36.68
2019-04-22T10:55:09.756Z,35.98
2019-04-22T10:56:09.307Z,38.48
2019-04-22T10:57:08.804Z,39.37
2019-04-22T10:58:08.918Z,39.58
2019-04-22T10:59:08.850Z,37.98
2019-04-22T11:00:09.338Z,36.98
2019-04-22T11:01:09.612Z,36.78
2019-04-22T11:02:09.679Z,37.27
2019-04-22T11:03:08.585Z,37.16
2019-04-22T11:04:09.111Z,37.26
2019-04-22T11:05:08.601Z,37.14
2019-04-22T11:06:09.680Z,38.32
2019-04-22T11:07:11.054Z,37.30
2019-04-22T11:08:10.259Z,36.67
2019-04-22T11:09:10.602Z,32.74
2019-04-22T11:10:28.625Z,32.09
2019-04-22T11:11:21.369Z,30.07
2019-04-22T11:12:15.445Z,29.13
2019-04-22T11:13:10.879Z,28.99
2019-04-22T11:14:08.878Z,28.96
2019-04-22T11:15:09.814Z,28.44
2019-04-22T11:16:09.725Z,27.04
2019-04-22T11:17:08.919Z,27.33
2019-04-22T11:18:09.481Z,28.31
2019-04-22T11:19:09.814Z,26.45
2019-04-22T11:20:08.385Z,25.83
2019-04-22T11:21:09.668Z,26.32
2019-04-22T11:22:16.836Z,25.51
2019-04-22T11:23:10.775Z,24.81
2019-04-22T11:24:08.576Z,23.83
2019-04-22T11:25:09.702Z,23.72
2019-04-22T11:26:08.451Z,24.21
2019-04-22T11:27:08.408Z,22.92
2019-04-22T11:28:09.754Z,24.98
2019-04-22T11:29:09.869Z,24.08
2019-04-22T11:30:08.802Z,23.40
2019-04-22T11:31:08.369Z,23.99
2019-04-22T11:32:08.631Z,24.08
2019-04-22T11:33:10.352Z,24.18
2019-04-22T11:34:08.889Z,22.71
2019-04-22T11:35:09.774Z,23.68
2019-04-22T11:36:08.243Z,21.72
2019-04-22T11:37:08.299Z,21.03
2019-04-22T11:38:08.762Z,20.83
2019-04-22T11:39:11.235Z,22.50
2019-04-22T11:40:18.995Z,22.52
2019-04-22T11:41:09.356Z,24.22
2019-04-22T11:42:08.214Z,23.93
2019-04-22T11:43:08.162Z,23.72
2019-04-22T11:44:11.485Z,24.41
2019-04-22T11:45:09.037Z,24.30
2019-04-22T11:46:09.451Z,23.33
2019-04-22T11:47:09.566Z,23.84
2019-04-22T11:48:09.130Z,24.04
2019-04-22T11:49:10.299Z,24.92
2019-04-22T11:50:08.156Z,24.13
2019-04-22T11:51:09.642Z,24.02
2019-04-22T11:52:10.725Z,24.41
2019-04-22T11:53:09.266Z,23.84
2019-04-22T11:54:08.073Z,24.12
2019-04-22T11:55:10.746Z,23.91
2019-04-22T11:56:08.940Z,23.03
2019-04-22T11:57:08.548Z,23.91
2019-04-22T11:58:08.739Z,23.11
2019-04-22T11:59:08.891Z,22.60
2019-04-22T12:00:09.115Z,22.78
2019-04-22T12:01:08.967Z,22.86
2019-04-22T12:02:08.984Z,20.91
2019-04-22T12:03:09.279Z,22.67
2019-04-22T12:04:07.970Z,21.59
2019-04-22T12:05:08.040Z,21.98
2019-04-22T12:06:08.378Z,20.81
2019-04-22T12:07:08.817Z,21.11
2019-04-22T12:08:09.225Z,20.32
2019-04-22T12:09:10.097Z,20.91
2019-04-22T12:10:19.226Z,19.64
2019-04-22T12:11:09.855Z,19.92
2019-04-22T12:12:09.630Z,20.39
2019-04-22T12:13:08.131Z,21.06
2019-04-22T12:14:07.962Z,20.17
2019-04-22T12:15:08.504Z,20.15
2019-04-22T12:16:09.318Z,18.40
2019-04-22T12:17:07.870Z,18.52
2019-04-22T12:18:09.180Z,18.72
2019-04-22T12:19:09.107Z,20.31
2019-04-22T12:20:10.229Z,19.93
2019-04-22T12:21:08.941Z,20.32
2019-04-22T12:22:09.133Z,21.19
2019-04-22T12:23:09.421Z,20.30
2019-04-22T12:24:09.104Z,18.64
2019-04-22T12:25:08.144Z,20.42
2019-04-22T12:26:12.811Z,20.61
2019-04-22T12:27:08.767Z,18.85
2019-04-22T12:28:09.069Z,19.25
2019-04-22T12:29:08.895Z,19.54
2019-04-22T12:30:09.283Z,20.51
2019-04-22T12:31:09.242Z,19.92
2019-04-22T12:32:09.346Z,19.44
2019-04-22T12:33:11.056Z,19.14
2019-04-22T12:34:08.642Z,19.06
2019-04-22T12:35:07.680Z,18.57
2019-04-22T12:36:08.609Z,19.57
2019-04-22T12:37:08.753Z,19.68
2019-04-22T12:38:10.301Z,20.15
2019-04-22T12:39:07.690Z,21.42
2019-04-22T12:40:08.735Z,20.72
2019-04-22T12:41:10.349Z,21.19
2019-04-22T12:42:09.001Z,18.43
2019-04-22T12:43:08.711Z,18.62
2019-04-22T12:44:07.670Z,18.31
2019-04-22T12:45:08.279Z,19.08
2019-04-22T12:46:07.960Z,18.98
2019-04-22T12:47:09.424Z,18.59
2019-04-22T12:48:08.484Z,16.54
2019-04-22T12:49:07.958Z,18.31
2019-04-22T12:50:17.798Z,18.21
2019-04-22T12:51:09.210Z,19.28
2019-04-22T12:52:07.531Z,19.28
2019-04-22T12:53:11.358Z,18.60
2019-04-22T12:54:08.842Z,17.53
2019-04-22T12:55:08.030Z,18.60
2019-04-22T12:56:07.426Z,18.51
2019-04-22T12:57:07.617Z,18.04
2019-04-22T12:58:07.668Z,18.92
2019-04-22T12:59:07.693Z,19.21
2019-04-22T13:00:07.943Z,19.49
2019-04-22T13:01:08.718Z,19.38
2019-04-22T13:02:07.413Z,19.77
2019-04-22T13:03:07.405Z,19.78
2019-04-22T13:04:10.213Z,18.13
2019-04-22T13:05:09.994Z,18.70
2019-04-22T13:06:07.813Z,18.90
2019-04-22T13:07:08.009Z,18.02
2019-04-22T13:08:07.621Z,18.62
2019-04-22T13:09:08.511Z,18.52
2019-04-22T13:10:08.053Z,18.44
2019-04-22T13:11:12.328Z,18.65
2019-04-22T13:12:08.901Z,19.64
2019-04-22T13:13:09.090Z,19.13
2019-04-22T13:14:07.294Z,19.42
2019-04-22T13:15:07.925Z,18.52
2019-04-22T13:16:08.888Z,18.41
2019-04-22T13:17:08.364Z,18.42
2019-04-22T13:18:17.007Z,19.21
2019-04-22T13:19:11.682Z,18.42
2019-04-22T13:20:11.526Z,18.42
2019-04-22T13:21:08.821Z,19.00
2019-04-22T13:22:09.125Z,19.20
2019-04-22T13:23:07.741Z,18.31
2019-04-22T13:24:07.246Z,18.03
2019-04-22T13:25:07.960Z,18.42
2019-04-22T13:26:15.127Z,18.60
2019-04-22T13:27:08.798Z,18.60
2019-04-22T13:28:09.362Z,18.39
2019-04-22T13:29:07.443Z,17.60
2019-04-22T13:30:10.138Z,18.37
2019-04-22T13:31:07.755Z,18.39
2019-04-22T13:32:07.204Z,18.97
2019-04-22T13:33:07.145Z,17.99
2019-04-22T13:34:13.307Z,19.45
2019-04-22T13:35:08.858Z,20.35
2019-04-22T13:36:07.996Z,19.09
2019-04-22T13:37:07.370Z,19.10
2019-04-22T13:38:07.015Z,19.78
2019-04-22T13:39:07.111Z,20.36
2019-04-22T13:40:07.387Z,20.43
2019-04-22T13:41:20.441Z,19.96
2019-04-22T13:42:12.461Z,18.10
2019-04-22T13:43:09.083Z,20.46
2019-04-22T13:44:07.096Z,19.00
2019-04-22T13:45:07.647Z,19.59
2019-04-22T13:46:08.072Z,19.90
2019-04-22T13:47:19.722Z,19.81
2019-04-22T13:48:27.609Z,20.40
2019-04-22T13:50:48.157Z,19.79
2019-04-22T13:51:36.424Z,19.79
2019-04-22T13:53:44.755Z,20.20
2019-04-22T13:54:18.556Z,20.88
2019-04-22T13:55:41.205Z,19.83
2019-04-22T13:56:32.785Z,21.42
2019-04-22T13:57:27.534Z,21.73
2019-04-22T13:58:21.911Z,21.73
2019-04-22T13:59:18.430Z,22.70
2019-04-22T14:00:09.827Z,23.97
2019-04-22T14:01:07.818Z,22.41
2019-04-22T14:02:06.779Z,21.70
2019-04-22T14:03:06.914Z,21.72
2019-04-22T14:04:07.087Z,22.99
2019-04-22T14:05:08.757Z,23.39
2019-04-22T14:06:06.908Z,22.20
2019-04-22T14:07:07.193Z,24.18
2019-04-22T14:08:08.257Z,22.52
2019-04-22T14:09:07.435Z,23.02
2019-04-22T14:10:06.694Z,23.10
2019-04-22T14:11:16.845Z,24.08
2019-04-22T14:12:09.792Z,22.72
2019-04-22T14:13:07.900Z,23.73
2019-04-22T14:14:13.410Z,23.63
2019-04-22T14:15:06.649Z,24.05
2019-04-22T14:16:06.864Z,25.04
2019-04-22T14:17:07.214Z,25.14
2019-04-22T14:18:07.708Z,25.63
2019-04-22T14:19:07.812Z,24.93
2019-04-22T14:20:06.818Z,24.26
2019-04-22T14:21:06.984Z,25.13
2019-04-22T14:22:07.656Z,23.75